sensor_id;sensor_type;location;lat;lon;timestamp;P1;durP1;ratioP1;P2;durP2;ratioP2
20336;SDS011;10326;53.660;10.200;2023-05-19T00:01:43;5.00;;;3.50;;
20336;SDS011;10326;53.660;10.200;2023-05-19T00:04:13;5.15;;;3.72;;
20336;SDS011;10326;53.660;10.200;2023-05-19T00:06:41;7.35;;;3.90;;
20336;SDS011;10326;53.660;10.200;2023-05-19T00:09:12;5.40;;;3.45;;
20336;SDS011;10326;53.660;10.200;2023-05-19T00:11:39;5.70;;;3.60;;
20336;SDS011;10326;53.660;10.200;2023-05-19T00:14:07;3.75;;;3.30;;
20336;SDS011;10326;53.660;10.200;2023-05-19T00:16:35;5.72;;;3.40;;
20336;SDS011;10326;53.660;10.200;2023-05-19T00:19:04;4.53;;;3.50;;
20336;SDS011;10326;53.660;10.200;2023-05-19T00:21:34;5.72;;;3.03;;
20336;SDS011;10326;53.660;10.200;2023-05-19T00:24:03;4.93;;;3.47;;
20336;SDS011;10326;53.660;10.200;2023-05-19T00:26:32;6.22;;;3.67;;
20336;SDS011;10326;53.660;10.200;2023-05-19T00:29:03;6.18;;;3.55;;
20336;SDS011;10326;53.660;10.200;2023-05-19T00:31:30;4.10;;;3.70;;
20336;SDS011;10326;53.660;10.200;2023-05-19T00:33:59;3.83;;;3.38;;
20336;SDS011;10326;53.660;10.200;2023-05-19T00:36:27;4.30;;;3.47;;
20336;SDS011;10326;53.660;10.200;2023-05-19T00:38:54;4.22;;;3.33;;
20336;SDS011;10326;53.660;10.200;2023-05-19T00:41:21;4.50;;;3.50;;
20336;SDS011;10326;53.660;10.200;2023-05-19T00:43:50;5.40;;;3.60;;
20336;SDS011;10326;53.660;10.200;2023-05-19T00:46:17;5.20;;;4.22;;
20336;SDS011;10326;53.660;10.200;2023-05-19T00:48:44;4.40;;;3.60;;
20336;SDS011;10326;53.660;10.200;2023-05-19T00:51:12;5.25;;;4.30;;
20336;SDS011;10326;53.660;10.200;2023-05-19T00:53:40;4.55;;;4.00;;
20336;SDS011;10326;53.660;10.200;2023-05-19T00:56:12;5.35;;;4.18;;
20336;SDS011;10326;53.660;10.200;2023-05-19T00:58:40;6.18;;;4.18;;
20336;SDS011;10326;53.660;10.200;2023-05-19T01:01:09;5.55;;;4.13;;
20336;SDS011;10326;53.660;10.200;2023-05-19T01:03:40;5.25;;;3.90;;
20336;SDS011;10326;53.660;10.200;2023-05-19T01:06:09;7.95;;;4.25;;
20336;SDS011;10326;53.660;10.200;2023-05-19T01:08:37;7.03;;;4.35;;
20336;SDS011;10326;53.660;10.200;2023-05-19T01:11:04;6.22;;;4.50;;
20336;SDS011;10326;53.660;10.200;2023-05-19T01:13:32;6.75;;;4.47;;
20336;SDS011;10326;53.660;10.200;2023-05-19T01:16:03;5.50;;;4.07;;
20336;SDS011;10326;53.660;10.200;2023-05-19T01:18:48;4.57;;;4.07;;
20336;SDS011;10326;53.660;10.200;2023-05-19T01:21:48;5.97;;;4.68;;
20336;SDS011;10326;53.660;10.200;2023-05-19T01:25:01;6.13;;;4.32;;
20336;SDS011;10326;53.660;10.200;2023-05-19T01:28:07;6.93;;;4.55;;
20336;SDS011;10326;53.660;10.200;2023-05-19T01:30:57;6.25;;;4.65;;
20336;SDS011;10326;53.660;10.200;2023-05-19T01:33:26;6.03;;;4.05;;
20336;SDS011;10326;53.660;10.200;2023-05-19T01:35:56;6.65;;;4.47;;
20336;SDS011;10326;53.660;10.200;2023-05-19T01:38:25;6.10;;;4.57;;
20336;SDS011;10326;53.660;10.200;2023-05-19T01:40:55;6.93;;;4.43;;
20336;SDS011;10326;53.660;10.200;2023-05-19T01:43:24;7.20;;;4.80;;
20336;SDS011;10326;53.660;10.200;2023-05-19T01:45:52;6.32;;;5.30;;
20336;SDS011;10326;53.660;10.200;2023-05-19T01:48:24;7.00;;;4.80;;
20336;SDS011;10326;53.660;10.200;2023-05-19T01:50:52;4.80;;;4.40;;
20336;SDS011;10326;53.660;10.200;2023-05-19T01:53:21;5.40;;;4.88;;
20336;SDS011;10326;53.660;10.200;2023-05-19T01:55:49;5.07;;;4.55;;
20336;SDS011;10326;53.660;10.200;2023-05-19T01:58:20;6.82;;;5.20;;
20336;SDS011;10326;53.660;10.200;2023-05-19T02:00:57;7.75;;;5.18;;
20336;SDS011;10326;53.660;10.200;2023-05-19T02:03:43;5.75;;;4.55;;
20336;SDS011;10326;53.660;10.200;2023-05-19T02:06:29;6.10;;;4.20;;
20336;SDS011;10326;53.660;10.200;2023-05-19T02:09:05;5.82;;;4.68;;
20336;SDS011;10326;53.660;10.200;2023-05-19T02:11:39;4.85;;;4.35;;
20336;SDS011;10326;53.660;10.200;2023-05-19T02:14:11;5.43;;;4.93;;
20336;SDS011;10326;53.660;10.200;2023-05-19T02:16:58;5.90;;;4.32;;
20336;SDS011;10326;53.660;10.200;2023-05-19T02:19:31;7.25;;;4.80;;
20336;SDS011;10326;53.660;10.200;2023-05-19T02:22:04;5.65;;;4.03;;
20336;SDS011;10326;53.660;10.200;2023-05-19T02:24:31;6.78;;;4.40;;
20336;SDS011;10326;53.660;10.200;2023-05-19T02:26:58;4.82;;;4.32;;
20336;SDS011;10326;53.660;10.200;2023-05-19T02:29:25;5.57;;;4.03;;
20336;SDS011;10326;53.660;10.200;2023-05-19T02:31:51;7.70;;;5.07;;
20336;SDS011;10326;53.660;10.200;2023-05-19T02:34:18;5.40;;;4.63;;
20336;SDS011;10326;53.660;10.200;2023-05-19T02:36:47;6.57;;;5.18;;
20336;SDS011;10326;53.660;10.200;2023-05-19T02:39:14;6.70;;;4.95;;
20336;SDS011;10326;53.660;10.200;2023-05-19T02:41:41;6.15;;;4.40;;
20336;SDS011;10326;53.660;10.200;2023-05-19T02:44:08;6.57;;;4.60;;
20336;SDS011;10326;53.660;10.200;2023-05-19T02:46:35;6.75;;;4.35;;
20336;SDS011;10326;53.660;10.200;2023-05-19T02:49:02;5.43;;;4.13;;
20336;SDS011;10326;53.660;10.200;2023-05-19T02:51:29;7.78;;;4.82;;
20336;SDS011;10326;53.660;10.200;2023-05-19T02:53:57;4.88;;;4.38;;
20336;SDS011;10326;53.660;10.200;2023-05-19T02:56:24;5.35;;;4.28;;
20336;SDS011;10326;53.660;10.200;2023-05-19T02:58:52;6.78;;;4.82;;
20336;SDS011;10326;53.660;10.200;2023-05-19T03:01:20;6.95;;;4.32;;
20336;SDS011;10326;53.660;10.200;2023-05-19T03:03:47;5.50;;;4.45;;
20336;SDS011;10326;53.660;10.200;2023-05-19T03:06:14;6.10;;;4.57;;
20336;SDS011;10326;53.660;10.200;2023-05-19T03:08:42;5.57;;;4.40;;
20336;SDS011;10326;53.660;10.200;2023-05-19T03:11:10;7.55;;;5.10;;
20336;SDS011;10326;53.660;10.200;2023-05-19T03:13:37;6.05;;;4.57;;
20336;SDS011;10326;53.660;10.200;2023-05-19T03:16:04;5.05;;;4.38;;
20336;SDS011;10326;53.660;10.200;2023-05-19T03:18:32;5.78;;;4.05;;
20336;SDS011;10326;53.660;10.200;2023-05-19T03:20:59;5.88;;;4.72;;
20336;SDS011;10326;53.660;10.200;2023-05-19T03:23:26;4.97;;;4.55;;
20336;SDS011;10326;53.660;10.200;2023-05-19T03:25:53;5.88;;;4.65;;
20336;SDS011;10326;53.660;10.200;2023-05-19T03:28:21;5.43;;;4.03;;
20336;SDS011;10326;53.660;10.200;2023-05-19T03:30:50;5.35;;;4.60;;
20336;SDS011;10326;53.660;10.200;2023-05-19T03:33:20;4.70;;;4.13;;
20336;SDS011;10326;53.660;10.200;2023-05-19T03:35:49;6.03;;;4.40;;
20336;SDS011;10326;53.660;10.200;2023-05-19T03:38:17;5.65;;;4.65;;
20336;SDS011;10326;53.660;10.200;2023-05-19T03:40:51;7.25;;;4.72;;
20336;SDS011;10326;53.660;10.200;2023-05-19T03:43:18;4.82;;;4.35;;
20336;SDS011;10326;53.660;10.200;2023-05-19T03:45:52;7.28;;;4.88;;
20336;SDS011;10326;53.660;10.200;2023-05-19T03:48:42;5.60;;;4.63;;
20336;SDS011;10326;53.660;10.200;2023-05-19T03:51:28;5.68;;;4.40;;
20336;SDS011;10326;53.660;10.200;2023-05-19T03:54:02;7.05;;;4.95;;
20336;SDS011;10326;53.660;10.200;2023-05-19T03:56:30;4.80;;;4.05;;
20336;SDS011;10326;53.660;10.200;2023-05-19T03:58:57;6.50;;;5.13;;
20336;SDS011;10326;53.660;10.200;2023-05-19T04:01:25;6.30;;;4.50;;
20336;SDS011;10326;53.660;10.200;2023-05-19T04:03:52;5.50;;;4.15;;
20336;SDS011;10326;53.660;10.200;2023-05-19T04:06:19;6.95;;;4.60;;
20336;SDS011;10326;53.660;10.200;2023-05-19T04:08:47;6.80;;;4.15;;
20336;SDS011;10326;53.660;10.200;2023-05-19T04:11:14;5.30;;;4.43;;
20336;SDS011;10326;53.660;10.200;2023-05-19T04:13:41;8.65;;;4.63;;
20336;SDS011;10326;53.660;10.200;2023-05-19T04:16:08;5.97;;;4.50;;
20336;SDS011;10326;53.660;10.200;2023-05-19T04:18:36;5.13;;;4.22;;
20336;SDS011;10326;53.660;10.200;2023-05-19T04:21:03;8.80;;;4.60;;
20336;SDS011;10326;53.660;10.200;2023-05-19T04:23:32;7.13;;;4.38;;
20336;SDS011;10326;53.660;10.200;2023-05-19T04:25:59;5.88;;;4.13;;
20336;SDS011;10326;53.660;10.200;2023-05-19T04:28:27;8.27;;;4.47;;
20336;SDS011;10326;53.660;10.200;2023-05-19T04:30:55;7.03;;;4.88;;
20336;SDS011;10326;53.660;10.200;2023-05-19T04:33:23;6.80;;;4.70;;
20336;SDS011;10326;53.660;10.200;2023-05-19T04:35:51;6.50;;;4.18;;
20336;SDS011;10326;53.660;10.200;2023-05-19T04:38:18;5.90;;;4.55;;
20336;SDS011;10326;53.660;10.200;2023-05-19T04:40:47;7.40;;;4.53;;
20336;SDS011;10326;53.660;10.200;2023-05-19T04:43:16;7.57;;;5.07;;
20336;SDS011;10326;53.660;10.200;2023-05-19T04:45:43;9.38;;;4.50;;
20336;SDS011;10326;53.660;10.200;2023-05-19T04:48:11;7.18;;;4.10;;
20336;SDS011;10326;53.660;10.200;2023-05-19T04:50:39;6.35;;;4.18;;
20336;SDS011;10326;53.660;10.200;2023-05-19T04:53:08;6.03;;;4.10;;
20336;SDS011;10326;53.660;10.200;2023-05-19T04:55:36;9.68;;;4.65;;
20336;SDS011;10326;53.660;10.200;2023-05-19T04:58:04;5.70;;;4.22;;
20336;SDS011;10326;53.660;10.200;2023-05-19T05:00:31;6.80;;;4.57;;
20336;SDS011;10326;53.660;10.200;2023-05-19T05:03:02;7.22;;;4.22;;
20336;SDS011;10326;53.660;10.200;2023-05-19T05:05:31;6.85;;;4.28;;
20336;SDS011;10326;53.660;10.200;2023-05-19T05:07:59;6.38;;;4.20;;
20336;SDS011;10326;53.660;10.200;2023-05-19T05:10:32;5.57;;;4.00;;
20336;SDS011;10326;53.660;10.200;2023-05-19T05:13:00;6.03;;;4.45;;
20336;SDS011;10326;53.660;10.200;2023-05-19T05:15:28;6.63;;;4.28;;
20336;SDS011;10326;53.660;10.200;2023-05-19T05:17:58;7.07;;;4.50;;
20336;SDS011;10326;53.660;10.200;2023-05-19T05:20:26;4.75;;;3.58;;
20336;SDS011;10326;53.660;10.200;2023-05-19T05:22:55;8.02;;;4.00;;
20336;SDS011;10326;53.660;10.200;2023-05-19T05:25:24;7.47;;;4.00;;
20336;SDS011;10326;53.660;10.200;2023-05-19T05:27:53;7.63;;;4.00;;
20336;SDS011;10326;53.660;10.200;2023-05-19T05:30:21;5.85;;;4.07;;
20336;SDS011;10326;53.660;10.200;2023-05-19T05:32:48;6.78;;;3.88;;
20336;SDS011;10326;53.660;10.200;2023-05-19T05:35:30;7.70;;;4.13;;
20336;SDS011;10326;53.660;10.200;2023-05-19T05:37:57;7.65;;;3.88;;
20336;SDS011;10326;53.660;10.200;2023-05-19T05:40:25;5.97;;;3.78;;
20336;SDS011;10326;53.660;10.200;2023-05-19T05:42:54;8.35;;;3.90;;
20336;SDS011;10326;53.660;10.200;2023-05-19T05:45:24;7.32;;;3.92;;
20336;SDS011;10326;53.660;10.200;2023-05-19T05:47:53;5.65;;;3.65;;
20336;SDS011;10326;53.660;10.200;2023-05-19T05:50:21;5.43;;;3.67;;
20336;SDS011;10326;53.660;10.200;2023-05-19T05:52:49;6.88;;;3.80;;
20336;SDS011;10326;53.660;10.200;2023-05-19T05:55:19;8.65;;;3.70;;
20336;SDS011;10326;53.660;10.200;2023-05-19T05:57:47;6.13;;;3.58;;
20336;SDS011;10326;53.660;10.200;2023-05-19T06:00:17;7.07;;;4.10;;
20336;SDS011;10326;53.660;10.200;2023-05-19T06:02:50;5.38;;;3.28;;
20336;SDS011;10326;53.660;10.200;2023-05-19T06:05:18;8.57;;;3.63;;
20336;SDS011;10326;53.660;10.200;2023-05-19T06:07:46;6.53;;;3.80;;
20336;SDS011;10326;53.660;10.200;2023-05-19T06:10:19;6.28;;;3.30;;
20336;SDS011;10326;53.660;10.200;2023-05-19T06:12:47;7.47;;;3.60;;
20336;SDS011;10326;53.660;10.200;2023-05-19T06:15:15;8.27;;;3.38;;
20336;SDS011;10326;53.660;10.200;2023-05-19T06:17:49;7.78;;;3.70;;
20336;SDS011;10326;53.660;10.200;2023-05-19T06:20:17;8.00;;;3.38;;
20336;SDS011;10326;53.660;10.200;2023-05-19T06:22:44;8.52;;;3.75;;
20336;SDS011;10326;53.660;10.200;2023-05-19T06:25:13;6.38;;;3.50;;
20336;SDS011;10326;53.660;10.200;2023-05-19T06:27:41;6.00;;;2.95;;
20336;SDS011;10326;53.660;10.200;2023-05-19T06:30:08;4.80;;;3.22;;
20336;SDS011;10326;53.660;10.200;2023-05-19T06:32:51;6.18;;;3.47;;
20336;SDS011;10326;53.660;10.200;2023-05-19T06:35:18;6.38;;;3.28;;
20336;SDS011;10326;53.660;10.200;2023-05-19T06:37:46;5.25;;;3.55;;
20336;SDS011;10326;53.660;10.200;2023-05-19T06:40:13;6.68;;;3.58;;
20336;SDS011;10326;53.660;10.200;2023-05-19T06:42:41;7.13;;;3.30;;
20336;SDS011;10326;53.660;10.200;2023-05-19T06:45:19;5.25;;;3.00;;
20336;SDS011;10326;53.660;10.200;2023-05-19T06:47:49;5.55;;;3.42;;
20336;SDS011;10326;53.660;10.200;2023-05-19T06:50:17;7.07;;;3.00;;
20336;SDS011;10326;53.660;10.200;2023-05-19T06:52:47;4.60;;;3.00;;
20336;SDS011;10326;53.660;10.200;2023-05-19T06:55:14;7.07;;;3.20;;
20336;SDS011;10326;53.660;10.200;2023-05-19T06:57:41;6.70;;;3.45;;
20336;SDS011;10326;53.660;10.200;2023-05-19T07:00:09;7.03;;;3.25;;
20336;SDS011;10326;53.660;10.200;2023-05-19T07:02:40;4.95;;;2.80;;
20336;SDS011;10326;53.660;10.200;2023-05-19T07:05:07;6.35;;;3.47;;
20336;SDS011;10326;53.660;10.200;2023-05-19T07:07:36;6.00;;;2.80;;
20336;SDS011;10326;53.660;10.200;2023-05-19T07:10:07;7.30;;;2.97;;
20336;SDS011;10326;53.660;10.200;2023-05-19T07:12:35;5.18;;;2.90;;
20336;SDS011;10326;53.660;10.200;2023-05-19T07:15:04;5.55;;;2.95;;
20336;SDS011;10326;53.660;10.200;2023-05-19T07:17:33;4.30;;;2.70;;
20336;SDS011;10326;53.660;10.200;2023-05-19T07:20:00;8.20;;;3.08;;
20336;SDS011;10326;53.660;10.200;2023-05-19T07:22:31;3.67;;;2.60;;
20336;SDS011;10326;53.660;10.200;2023-05-19T07:25:00;5.93;;;2.65;;
20336;SDS011;10326;53.660;10.200;2023-05-19T07:27:28;5.90;;;2.83;;
20336;SDS011;10326;53.660;10.200;2023-05-19T07:29:58;5.03;;;2.88;;
20336;SDS011;10326;53.660;10.200;2023-05-19T07:32:25;5.22;;;2.40;;
20336;SDS011;10326;53.660;10.200;2023-05-19T07:34:52;5.80;;;2.78;;
20336;SDS011;10326;53.660;10.200;2023-05-19T07:37:19;5.32;;;2.78;;
20336;SDS011;10326;53.660;10.200;2023-05-19T07:39:46;7.35;;;2.42;;
20336;SDS011;10326;53.660;10.200;2023-05-19T07:42:14;5.38;;;2.85;;
20336;SDS011;10326;53.660;10.200;2023-05-19T07:44:41;8.05;;;3.00;;
20336;SDS011;10326;53.660;10.200;2023-05-19T07:47:08;4.75;;;2.33;;
20336;SDS011;10326;53.660;10.200;2023-05-19T07:49:35;6.78;;;2.88;;
20336;SDS011;10326;53.660;10.200;2023-05-19T07:52:02;4.45;;;2.45;;
20336;SDS011;10326;53.660;10.200;2023-05-19T07:54:30;5.53;;;2.40;;
20336;SDS011;10326;53.660;10.200;2023-05-19T07:56:57;6.40;;;2.65;;
20336;SDS011;10326;53.660;10.200;2023-05-19T07:59:25;11.10;;;3.40;;
20336;SDS011;10326;53.660;10.200;2023-05-19T08:01:52;4.32;;;2.60;;
20336;SDS011;10326;53.660;10.200;2023-05-19T08:04:19;3.97;;;2.63;;
20336;SDS011;10326;53.660;10.200;2023-05-19T08:06:46;5.38;;;2.58;;
20336;SDS011;10326;53.660;10.200;2023-05-19T08:09:13;4.50;;;2.45;;
20336;SDS011;10326;53.660;10.200;2023-05-19T08:11:40;5.50;;;2.88;;
20336;SDS011;10326;53.660;10.200;2023-05-19T08:14:06;5.50;;;2.60;;
20336;SDS011;10326;53.660;10.200;2023-05-19T08:16:36;5.88;;;2.80;;
20336;SDS011;10326;53.660;10.200;2023-05-19T08:19:03;4.10;;;2.28;;
20336;SDS011;10326;53.660;10.200;2023-05-19T08:21:31;4.18;;;2.42;;
20336;SDS011;10326;53.660;10.200;2023-05-19T08:23:59;5.70;;;2.60;;
20336;SDS011;10326;53.660;10.200;2023-05-19T08:26:26;5.25;;;2.35;;
20336;SDS011;10326;53.660;10.200;2023-05-19T08:28:53;4.78;;;2.47;;
20336;SDS011;10326;53.660;10.200;2023-05-19T08:31:20;6.72;;;2.47;;
20336;SDS011;10326;53.660;10.200;2023-05-19T08:33:50;5.68;;;2.45;;
20336;SDS011;10326;53.660;10.200;2023-05-19T08:36:17;5.57;;;2.78;;
20336;SDS011;10326;53.660;10.200;2023-05-19T08:38:46;6.40;;;2.45;;
20336;SDS011;10326;53.660;10.200;2023-05-19T08:41:13;6.45;;;2.50;;
20336;SDS011;10326;53.660;10.200;2023-05-19T08:43:40;5.10;;;2.60;;
20336;SDS011;10326;53.660;10.200;2023-05-19T08:46:07;5.00;;;2.72;;
20336;SDS011;10326;53.660;10.200;2023-05-19T08:48:41;6.15;;;2.53;;
20336;SDS011;10326;53.660;10.200;2023-05-19T08:51:13;6.03;;;2.70;;
20336;SDS011;10326;53.660;10.200;2023-05-19T08:53:47;4.60;;;2.30;;
20336;SDS011;10326;53.660;10.200;2023-05-19T08:56:18;5.97;;;2.22;;
20336;SDS011;10326;53.660;10.200;2023-05-19T08:58:48;4.97;;;2.30;;
20336;SDS011;10326;53.660;10.200;2023-05-19T09:01:16;5.25;;;2.45;;
20336;SDS011;10326;53.660;10.200;2023-05-19T09:03:45;4.97;;;2.50;;
20336;SDS011;10326;53.660;10.200;2023-05-19T09:06:14;5.65;;;2.40;;
20336;SDS011;10326;53.660;10.200;2023-05-19T09:08:43;7.70;;;2.97;;
20336;SDS011;10326;53.660;10.200;2023-05-19T09:11:11;4.72;;;2.15;;
20336;SDS011;10326;53.660;10.200;2023-05-19T09:13:38;5.53;;;2.38;;
20336;SDS011;10326;53.660;10.200;2023-05-19T09:16:05;4.95;;;2.40;;
20336;SDS011;10326;53.660;10.200;2023-05-19T09:18:33;3.08;;;2.08;;
20336;SDS011;10326;53.660;10.200;2023-05-19T09:21:02;5.55;;;2.30;;
20336;SDS011;10326;53.660;10.200;2023-05-19T09:23:31;5.43;;;2.30;;
20336;SDS011;10326;53.660;10.200;2023-05-19T09:26:00;3.75;;;2.20;;
20336;SDS011;10326;53.660;10.200;2023-05-19T09:28:29;4.65;;;2.33;;
20336;SDS011;10326;53.660;10.200;2023-05-19T09:30:59;6.90;;;2.53;;
20336;SDS011;10326;53.660;10.200;2023-05-19T09:33:27;4.53;;;2.33;;
20336;SDS011;10326;53.660;10.200;2023-05-19T09:35:55;4.43;;;2.40;;
20336;SDS011;10326;53.660;10.200;2023-05-19T09:38:22;4.18;;;1.98;;
20336;SDS011;10326;53.660;10.200;2023-05-19T09:40:54;6.90;;;2.70;;
20336;SDS011;10326;53.660;10.200;2023-05-19T09:43:23;7.25;;;2.72;;
20336;SDS011;10326;53.660;10.200;2023-05-19T09:45:53;7.22;;;2.80;;
20336;SDS011;10326;53.660;10.200;2023-05-19T09:48:24;8.68;;;2.90;;
20336;SDS011;10326;53.660;10.200;2023-05-19T09:50:52;6.18;;;2.28;;
20336;SDS011;10326;53.660;10.200;2023-05-19T09:53:21;6.13;;;2.42;;
20336;SDS011;10326;53.660;10.200;2023-05-19T09:55:49;4.55;;;2.35;;
20336;SDS011;10326;53.660;10.200;2023-05-19T09:58:22;6.47;;;2.70;;
20336;SDS011;10326;53.660;10.200;2023-05-19T10:04:57;3.92;;;2.00;;
20336;SDS011;10326;53.660;10.200;2023-05-19T10:07:24;3.25;;;2.15;;
20336;SDS011;10326;53.660;10.200;2023-05-19T10:09:51;6.32;;;2.70;;
20336;SDS011;10326;53.660;10.200;2023-05-19T10:12:22;3.85;;;2.00;;
20336;SDS011;10326;53.660;10.200;2023-05-19T10:14:51;3.25;;;2.10;;
20336;SDS011;10326;53.660;10.200;2023-05-19T10:17:20;3.58;;;1.77;;
20336;SDS011;10326;53.660;10.200;2023-05-19T10:19:50;4.82;;;2.10;;
20336;SDS011;10326;53.660;10.200;2023-05-19T10:22:18;4.97;;;2.40;;
20336;SDS011;10326;53.660;10.200;2023-05-19T10:24:46;4.10;;;1.75;;
20336;SDS011;10326;53.660;10.200;2023-05-19T10:27:13;3.47;;;1.70;;
20336;SDS011;10326;53.660;10.200;2023-05-19T10:29:44;3.90;;;1.92;;
20336;SDS011;10326;53.660;10.200;2023-05-19T10:32:15;6.63;;;2.05;;
20336;SDS011;10326;53.660;10.200;2023-05-19T10:34:53;4.38;;;1.88;;
20336;SDS011;10326;53.660;10.200;2023-05-19T10:37:40;5.45;;;2.08;;
20336;SDS011;10326;53.660;10.200;2023-05-19T10:40:17;3.40;;;2.03;;
20336;SDS011;10326;53.660;10.200;2023-05-19T10:42:54;5.05;;;2.03;;
20336;SDS011;10326;53.660;10.200;2023-05-19T10:45:33;4.03;;;2.47;;
20336;SDS011;10326;53.660;10.200;2023-05-19T10:48:09;4.95;;;2.10;;
20336;SDS011;10326;53.660;10.200;2023-05-19T10:50:36;4.05;;;1.83;;
20336;SDS011;10326;53.660;10.200;2023-05-19T10:53:04;5.65;;;2.03;;
20336;SDS011;10326;53.660;10.200;2023-05-19T10:55:46;5.03;;;2.10;;
20336;SDS011;10326;53.660;10.200;2023-05-19T11:01:18;4.68;;;2.03;;
20336;SDS011;10326;53.660;10.200;2023-05-19T11:03:46;3.17;;;1.90;;
20336;SDS011;10326;53.660;10.200;2023-05-19T11:06:20;5.43;;;1.90;;
20336;SDS011;10326;53.660;10.200;2023-05-19T11:08:52;5.50;;;2.20;;
20336;SDS011;10326;53.660;10.200;2023-05-19T11:11:21;5.78;;;2.05;;
20336;SDS011;10326;53.660;10.200;2023-05-19T11:13:51;3.40;;;1.58;;
20336;SDS011;10326;53.660;10.200;2023-05-19T11:16:27;4.78;;;1.88;;
20336;SDS011;10326;53.660;10.200;2023-05-19T11:18:54;5.55;;;1.83;;
20336;SDS011;10326;53.660;10.200;2023-05-19T11:21:25;5.43;;;2.08;;
20336;SDS011;10326;53.660;10.200;2023-05-19T11:24:07;3.78;;;1.85;;
20336;SDS011;10326;53.660;10.200;2023-05-19T11:26:41;3.85;;;1.83;;
20336;SDS011;10326;53.660;10.200;2023-05-19T11:29:09;5.65;;;2.00;;
20336;SDS011;10326;53.660;10.200;2023-05-19T11:31:37;5.00;;;2.08;;
20336;SDS011;10326;53.660;10.200;2023-05-19T11:34:05;4.88;;;1.80;;
20336;SDS011;10326;53.660;10.200;2023-05-19T11:36:32;4.93;;;2.00;;
20336;SDS011;10326;53.660;10.200;2023-05-19T11:39:01;5.50;;;2.20;;
20336;SDS011;10326;53.660;10.200;2023-05-19T11:41:30;4.72;;;1.88;;
20336;SDS011;10326;53.660;10.200;2023-05-19T11:43:57;4.13;;;1.95;;
20336;SDS011;10326;53.660;10.200;2023-05-19T11:46:24;6.18;;;1.88;;
20336;SDS011;10326;53.660;10.200;2023-05-19T11:48:53;3.45;;;1.92;;
20336;SDS011;10326;53.660;10.200;2023-05-19T11:51:20;3.92;;;1.63;;
20336;SDS011;10326;53.660;10.200;2023-05-19T11:53:48;3.28;;;1.60;;
20336;SDS011;10326;53.660;10.200;2023-05-19T11:56:18;4.78;;;2.00;;
20336;SDS011;10326;53.660;10.200;2023-05-19T11:58:46;3.47;;;1.67;;
20336;SDS011;10326;53.660;10.200;2023-05-19T12:01:13;3.75;;;2.05;;
20336;SDS011;10326;53.660;10.200;2023-05-19T12:03:40;5.38;;;1.50;;
20336;SDS011;10326;53.660;10.200;2023-05-19T12:06:09;4.18;;;1.90;;
20336;SDS011;10326;53.660;10.200;2023-05-19T12:08:38;3.15;;;1.77;;
20336;SDS011;10326;53.660;10.200;2023-05-19T12:11:05;3.50;;;1.50;;
20336;SDS011;10326;53.660;10.200;2023-05-19T12:13:32;3.15;;;1.73;;
20336;SDS011;10326;53.660;10.200;2023-05-19T12:16:00;2.25;;;1.35;;
20336;SDS011;10326;53.660;10.200;2023-05-19T12:18:29;4.00;;;1.75;;
20336;SDS011;10326;53.660;10.200;2023-05-19T12:21:02;4.47;;;1.70;;
20336;SDS011;10326;53.660;10.200;2023-05-19T12:23:31;2.80;;;1.52;;
20336;SDS011;10326;53.660;10.200;2023-05-19T12:25:59;3.17;;;1.80;;
20336;SDS011;10326;53.660;10.200;2023-05-19T12:28:28;4.15;;;1.77;;
20336;SDS011;10326;53.660;10.200;2023-05-19T12:30:59;3.50;;;1.60;;
20336;SDS011;10326;53.660;10.200;2023-05-19T12:33:28;3.65;;;1.70;;
20336;SDS011;10326;53.660;10.200;2023-05-19T12:35:58;4.03;;;1.98;;
20336;SDS011;10326;53.660;10.200;2023-05-19T12:38:27;3.45;;;1.80;;
20336;SDS011;10326;53.660;10.200;2023-05-19T12:41:00;5.50;;;1.70;;
20336;SDS011;10326;53.660;10.200;2023-05-19T12:43:31;4.00;;;1.60;;
20336;SDS011;10326;53.660;10.200;2023-05-19T12:46:07;4.20;;;2.20;;
20336;SDS011;10326;53.660;10.200;2023-05-19T12:48:42;4.90;;;1.67;;
20336;SDS011;10326;53.660;10.200;2023-05-19T12:51:14;3.28;;;1.77;;
20336;SDS011;10326;53.660;10.200;2023-05-19T12:53:42;3.70;;;1.70;;
20336;SDS011;10326;53.660;10.200;2023-05-19T12:56:11;3.15;;;1.67;;
20336;SDS011;10326;53.660;10.200;2023-05-19T12:58:39;4.47;;;1.80;;
20336;SDS011;10326;53.660;10.200;2023-05-19T13:01:13;4.60;;;1.85;;
20336;SDS011;10326;53.660;10.200;2023-05-19T13:03:41;7.00;;;2.05;;
20336;SDS011;10326;53.660;10.200;2023-05-19T13:06:09;3.83;;;1.90;;
20336;SDS011;10326;53.660;10.200;2023-05-19T13:08:37;3.38;;;2.00;;
20336;SDS011;10326;53.660;10.200;2023-05-19T13:11:04;2.78;;;1.48;;
20336;SDS011;10326;53.660;10.200;2023-05-19T13:13:33;2.35;;;1.65;;
20336;SDS011;10326;53.660;10.200;2023-05-19T13:16:00;4.35;;;1.90;;
20336;SDS011;10326;53.660;10.200;2023-05-19T13:18:27;3.90;;;1.70;;
20336;SDS011;10326;53.660;10.200;2023-05-19T13:20:56;2.40;;;1.50;;
20336;SDS011;10326;53.660;10.200;2023-05-19T13:23:23;3.85;;;1.55;;
20336;SDS011;10326;53.660;10.200;2023-05-19T13:25:51;2.90;;;1.73;;
20336;SDS011;10326;53.660;10.200;2023-05-19T13:28:18;4.43;;;1.83;;
20336;SDS011;10326;53.660;10.200;2023-05-19T13:30:46;2.70;;;1.63;;
20336;SDS011;10326;53.660;10.200;2023-05-19T13:33:13;3.95;;;1.63;;
20336;SDS011;10326;53.660;10.200;2023-05-19T13:35:40;4.90;;;1.80;;
20336;SDS011;10326;53.660;10.200;2023-05-19T13:38:08;5.38;;;1.60;;
20336;SDS011;10326;53.660;10.200;2023-05-19T13:40:36;3.95;;;1.80;;
20336;SDS011;10326;53.660;10.200;2023-05-19T13:43:03;4.05;;;1.55;;
20336;SDS011;10326;53.660;10.200;2023-05-19T13:45:31;2.95;;;1.50;;
20336;SDS011;10326;53.660;10.200;2023-05-19T13:48:00;2.97;;;1.60;;
20336;SDS011;10326;53.660;10.200;2023-05-19T13:50:27;2.22;;;1.42;;
20336;SDS011;10326;53.660;10.200;2023-05-19T13:52:55;2.22;;;1.65;;
20336;SDS011;10326;53.660;10.200;2023-05-19T13:55:22;3.92;;;1.63;;
20336;SDS011;10326;53.660;10.200;2023-05-19T13:57:51;2.78;;;1.70;;
20336;SDS011;10326;53.660;10.200;2023-05-19T14:00:18;3.80;;;1.60;;
20336;SDS011;10326;53.660;10.200;2023-05-19T14:02:46;2.03;;;1.42;;
20336;SDS011;10326;53.660;10.200;2023-05-19T14:05:15;5.20;;;1.60;;
20336;SDS011;10326;53.660;10.200;2023-05-19T14:07:42;2.83;;;1.40;;
20336;SDS011;10326;53.660;10.200;2023-05-19T14:10:09;2.20;;;1.40;;
20336;SDS011;10326;53.660;10.200;2023-05-19T14:12:38;3.67;;;1.50;;
20336;SDS011;10326;53.660;10.200;2023-05-19T14:15:08;3.47;;;1.65;;
20336;SDS011;10326;53.660;10.200;2023-05-19T14:17:36;3.72;;;1.45;;
20336;SDS011;10326;53.660;10.200;2023-05-19T14:20:06;2.90;;;1.50;;
20336;SDS011;10326;53.660;10.200;2023-05-19T14:22:37;3.33;;;1.67;;
20336;SDS011;10326;53.660;10.200;2023-05-19T14:25:08;2.35;;;1.38;;
20336;SDS011;10326;53.660;10.200;2023-05-19T14:27:36;5.07;;;1.55;;
20336;SDS011;10326;53.660;10.200;2023-05-19T14:30:08;3.15;;;1.70;;
20336;SDS011;10326;53.660;10.200;2023-05-19T14:32:37;2.20;;;1.45;;
20336;SDS011;10326;53.660;10.200;2023-05-19T14:35:05;3.10;;;1.40;;
20336;SDS011;10326;53.660;10.200;2023-05-19T14:37:36;4.05;;;1.40;;
20336;SDS011;10326;53.660;10.200;2023-05-19T14:40:04;3.83;;;1.30;;
20336;SDS011;10326;53.660;10.200;2023-05-19T14:42:34;2.63;;;1.25;;
20336;SDS011;10326;53.660;10.200;2023-05-19T14:45:02;3.40;;;1.70;;
20336;SDS011;10326;53.660;10.200;2023-05-19T14:47:32;5.50;;;1.70;;
20336;SDS011;10326;53.660;10.200;2023-05-19T14:50:00;2.80;;;1.60;;
20336;SDS011;10326;53.660;10.200;2023-05-19T14:52:28;2.20;;;1.65;;
20336;SDS011;10326;53.660;10.200;2023-05-19T14:54:57;4.32;;;1.67;;